sensor_id;sensor_type;location;lat;lon;timestamp;temperature;humidity
1538;DHT22;12022;52.266;10.522;2022-08-21T00:02:25;20.10;99.90
1538;DHT22;12022;52.266;10.522;2022-08-21T00:04:52;20.00;99.90
1538;DHT22;12022;52.266;10.522;2022-08-21T00:07:23;20.00;99.90
1538;DHT22;12022;52.266;10.522;2022-08-21T00:09:52;20.00;99.90
1538;DHT22;12022;52.266;10.522;2022-08-21T00:12:20;19.90;99.90
1538;DHT22;12022;52.266;10.522;2022-08-21T00:14:47;19.80;99.90
1538;DHT22;12022;52.266;10.522;2022-08-21T00:17:15;19.80;99.90
1538;DHT22;12022;52.266;10.522;2022-08-21T00:19:41;19.70;99.90
1538;DHT22;12022;52.266;10.522;2022-08-21T00:22:08;19.70;99.90
1538;DHT22;12022;52.266;10.522;2022-08-21T00:24:35;19.60;99.90
1538;DHT22;12022;52.266;10.522;2022-08-21T00:27:02;19.50;99.90
1538;DHT22;12022;52.266;10.522;2022-08-21T00:29:29;19.50;99.90
1538;DHT22;12022;52.266;10.522;2022-08-21T00:31:56;19.50;99.90
1538;DHT22;12022;52.266;10.522;2022-08-21T00:34:23;19.50;99.90
1538;DHT22;12022;52.266;10.522;2022-08-21T00:36:50;19.40;99.90
1538;DHT22;12022;52.266;10.522;2022-08-21T00:39:17;19.40;99.90
1538;DHT22;12022;52.266;10.522;2022-08-21T00:41:44;19.40;99.90
1538;DHT22;12022;52.266;10.522;2022-08-21T00:44:13;19.30;99.90
1538;DHT22;12022;52.266;10.522;2022-08-21T00:46:41;19.30;99.90
1538;DHT22;12022;52.266;10.522;2022-08-21T00:49:11;19.30;99.90
1538;DHT22;12022;52.266;10.522;2022-08-21T00:51:49;19.30;99.90
1538;DHT22;12022;52.266;10.522;2022-08-21T00:54:17;19.30;99.90
1538;DHT22;12022;52.266;10.522;2022-08-21T00:56:51;19.20;99.90
1538;DHT22;12022;52.266;10.522;2022-08-21T00:59:21;19.20;99.90
1538;DHT22;12022;52.266;10.522;2022-08-21T01:01:49;19.10;99.90
1538;DHT22;12022;52.266;10.522;2022-08-21T01:04:19;19.10;99.90
1538;DHT22;12022;52.266;10.522;2022-08-21T01:06:46;19.10;99.90
1538;DHT22;12022;52.266;10.522;2022-08-21T01:09:14;19.10;99.90
1538;DHT22;12022;52.266;10.522;2022-08-21T01:11:41;19.10;99.90
1538;DHT22;12022;52.266;10.522;2022-08-21T01:14:12;19.10;99.90
1538;DHT22;12022;52.266;10.522;2022-08-21T01:16:41;19.00;99.90
1538;DHT22;12022;52.266;10.522;2022-08-21T01:19:10;19.00;99.90
1538;DHT22;12022;52.266;10.522;2022-08-21T01:21:37;19.00;99.90
1538;DHT22;12022;52.266;10.522;2022-08-21T01:24:05;18.90;99.90
1538;DHT22;12022;52.266;10.522;2022-08-21T01:26:34;18.90;99.90
1538;DHT22;12022;52.266;10.522;2022-08-21T01:29:07;18.90;99.90
1538;DHT22;12022;52.266;10.522;2022-08-21T01:31:37;18.80;99.90
1538;DHT22;12022;52.266;10.522;2022-08-21T01:34:05;18.80;99.90
1538;DHT22;12022;52.266;10.522;2022-08-21T01:36:33;18.70;99.90
1538;DHT22;12022;52.266;10.522;2022-08-21T01:39:02;18.70;99.90
1538;DHT22;12022;52.266;10.522;2022-08-21T01:41:29;18.70;99.90
1538;DHT22;12022;52.266;10.522;2022-08-21T01:43:56;18.60;99.90
1538;DHT22;12022;52.266;10.522;2022-08-21T01:46:23;18.60;99.90
1538;DHT22;12022;52.266;10.522;2022-08-21T01:48:50;18.60;99.90
1538;DHT22;12022;52.266;10.522;2022-08-21T01:51:17;18.60;99.90
1538;DHT22;12022;52.266;10.522;2022-08-21T01:53:44;18.60;99.90
1538;DHT22;12022;52.266;10.522;2022-08-21T01:56:14;18.50;99.90
1538;DHT22;12022;52.266;10.522;2022-08-21T01:58:43;18.50;99.90
1538;DHT22;12022;52.266;10.522;2022-08-21T02:01:11;18.50;99.90
1538;DHT22;12022;52.266;10.522;2022-08-21T02:03:38;18.50;99.90
1538;DHT22;12022;52.266;10.522;2022-08-21T02:06:07;18.40;99.90
1538;DHT22;12022;52.266;10.522;2022-08-21T02:08:34;18.40;99.90
1538;DHT22;12022;52.266;10.522;2022-08-21T02:11:01;18.40;99.90
1538;DHT22;12022;52.266;10.522;2022-08-21T02:13:28;18.40;99.90
1538;DHT22;12022;52.266;10.522;2022-08-21T02:15:55;18.30;99.90
1538;DHT22;12022;52.266;10.522;2022-08-21T02:18:22;18.30;99.90
1538;DHT22;12022;52.266;10.522;2022-08-21T02:20:50;18.30;99.90
1538;DHT22;12022;52.266;10.522;2022-08-21T02:23:23;18.30;99.90
1538;DHT22;12022;52.266;10.522;2022-08-21T02:26:00;18.30;99.90
1538;DHT22;12022;52.266;10.522;2022-08-21T02:28:31;18.30;99.90
1538;DHT22;12022;52.266;10.522;2022-08-21T02:30:58;18.20;99.90
1538;DHT22;12022;52.266;10.522;2022-08-21T02:33:26;18.20;99.90
1538;DHT22;12022;52.266;10.522;2022-08-21T02:35:54;18.10;99.90
1538;DHT22;12022;52.266;10.522;2022-08-21T02:38:24;18.10;99.90
1538;DHT22;12022;52.266;10.522;2022-08-21T02:40:52;18.10;99.90
1538;DHT22;12022;52.266;10.522;2022-08-21T02:43:21;18.10;99.90
1538;DHT22;12022;52.266;10.522;2022-08-21T02:45:49;18.10;99.90
1538;DHT22;12022;52.266;10.522;2022-08-21T02:48:20;18.00;99.90
1538;DHT22;12022;52.266;10.522;2022-08-21T02:50:58;18.00;99.90
1538;DHT22;12022;52.266;10.522;2022-08-21T02:53:27;18.00;99.90
1538;DHT22;12022;52.266;10.522;2022-08-21T02:55:57;18.00;99.90
1538;DHT22;12022;52.266;10.522;2022-08-21T02:58:27;18.00;99.90
1538;DHT22;12022;52.266;10.522;2022-08-21T03:00:54;17.90;99.90
1538;DHT22;12022;52.266;10.522;2022-08-21T03:03:21;17.90;99.90
1538;DHT22;12022;52.266;10.522;2022-08-21T03:05:49;17.90;99.90
1538;DHT22;12022;52.266;10.522;2022-08-21T03:08:17;17.90;99.90
1538;DHT22;12022;52.266;10.522;2022-08-21T03:10:47;17.80;99.90
1538;DHT22;12022;52.266;10.522;2022-08-21T03:13:16;17.80;99.90
1538;DHT22;12022;52.266;10.522;2022-08-21T03:15:43;18.20;99.90
1538;DHT22;12022;52.266;10.522;2022-08-21T03:18:11;17.70;99.90
1538;DHT22;12022;52.266;10.522;2022-08-21T03:20:41;17.70;99.90
1538;DHT22;12022;52.266;10.522;2022-08-21T03:23:09;17.70;99.90
1538;DHT22;12022;52.266;10.522;2022-08-21T03:25:40;17.60;99.90
1538;DHT22;12022;52.266;10.522;2022-08-21T03:28:15;17.60;99.90
1538;DHT22;12022;52.266;10.522;2022-08-21T03:30:44;17.60;99.90
1538;DHT22;12022;52.266;10.522;2022-08-21T03:33:12;17.50;99.90
1538;DHT22;12022;52.266;10.522;2022-08-21T03:35:43;17.50;99.90
1538;DHT22;12022;52.266;10.522;2022-08-21T03:38:11;17.50;99.90
1538;DHT22;12022;52.266;10.522;2022-08-21T03:40:41;17.40;99.90
1538;DHT22;12022;52.266;10.522;2022-08-21T03:43:08;17.40;99.90
1538;DHT22;12022;52.266;10.522;2022-08-21T03:45:36;17.40;99.90
1538;DHT22;12022;52.266;10.522;2022-08-21T03:48:04;17.40;99.90
1538;DHT22;12022;52.266;10.522;2022-08-21T03:50:35;17.40;99.90
1538;DHT22;12022;52.266;10.522;2022-08-21T03:53:08;17.40;99.90
1538;DHT22;12022;52.266;10.522;2022-08-21T03:55:49;17.30;99.90
1538;DHT22;12022;52.266;10.522;2022-08-21T03:58:19;17.40;99.90
1538;DHT22;12022;52.266;10.522;2022-08-21T04:00:50;17.30;99.90
1538;DHT22;12022;52.266;10.522;2022-08-21T04:03:17;17.30;99.90
1538;DHT22;12022;52.266;10.522;2022-08-21T04:05:45;17.20;99.90
1538;DHT22;12022;52.266;10.522;2022-08-21T04:08:13;17.20;99.90
1538;DHT22;12022;52.266;10.522;2022-08-21T04:10:41;17.20;99.90
1538;DHT22;12022;52.266;10.522;2022-08-21T04:13:10;17.20;99.90
1538;DHT22;12022;52.266;10.522;2022-08-21T04:15:37;17.20;99.90
1538;DHT22;12022;52.266;10.522;2022-08-21T04:18:05;17.10;99.90
1538;DHT22;12022;52.266;10.522;2022-08-21T04:20:32;17.20;99.90
1538;DHT22;12022;52.266;10.522;2022-08-21T04:23:00;17.20;99.90
1538;DHT22;12022;52.266;10.522;2022-08-21T04:25:28;17.20;99.90
1538;DHT22;12022;52.266;10.522;2022-08-21T04:27:55;17.20;99.90
1538;DHT22;12022;52.266;10.522;2022-08-21T04:30:22;17.20;99.90
1538;DHT22;12022;52.266;10.522;2022-08-21T04:32:55;17.30;99.90
1538;DHT22;12022;52.266;10.522;2022-08-21T04:35:25;17.30;99.90
1538;DHT22;12022;52.266;10.522;2022-08-21T04:37:52;17.30;99.90
1538;DHT22;12022;52.266;10.522;2022-08-21T04:40:21;17.30;99.90
1538;DHT22;12022;52.266;10.522;2022-08-21T04:42:51;17.30;99.90
1538;DHT22;12022;52.266;10.522;2022-08-21T04:45:22;17.40;99.90
1538;DHT22;12022;52.266;10.522;2022-08-21T04:47:51;17.40;99.90
1538;DHT22;12022;52.266;10.522;2022-08-21T04:50:22;17.50;99.90
1538;DHT22;12022;52.266;10.522;2022-08-21T04:52:51;17.70;99.90
1538;DHT22;12022;52.266;10.522;2022-08-21T04:55:18;18.00;99.90
1538;DHT22;12022;52.266;10.522;2022-08-21T04:57:46;18.20;99.90
1538;DHT22;12022;52.266;10.522;2022-08-21T05:00:16;18.50;99.90
1538;DHT22;12022;52.266;10.522;2022-08-21T05:02:46;18.60;99.90
1538;DHT22;12022;52.266;10.522;2022-08-21T05:05:16;18.90;99.90
1538;DHT22;12022;52.266;10.522;2022-08-21T05:07:44;19.20;99.90
1538;DHT22;12022;52.266;10.522;2022-08-21T05:10:13;19.60;99.90
1538;DHT22;12022;52.266;10.522;2022-08-21T05:12:44;20.00;99.90
1538;DHT22;12022;52.266;10.522;2022-08-21T05:15:12;20.40;99.90
1538;DHT22;12022;52.266;10.522;2022-08-21T05:17:42;20.70;99.90
1538;DHT22;12022;52.266;10.522;2022-08-21T05:20:18;21.10;99.90
1538;DHT22;12022;52.266;10.522;2022-08-21T05:22:46;21.40;99.90
1538;DHT22;12022;52.266;10.522;2022-08-21T05:25:13;21.80;99.90
1538;DHT22;12022;52.266;10.522;2022-08-21T05:27:42;22.20;99.90
1538;DHT22;12022;52.266;10.522;2022-08-21T05:30:10;22.80;99.90
1538;DHT22;12022;52.266;10.522;2022-08-21T05:32:37;23.40;99.90
1538;DHT22;12022;52.266;10.522;2022-08-21T05:35:06;23.90;99.90
1538;DHT22;12022;52.266;10.522;2022-08-21T05:37:33;24.40;99.90
1538;DHT22;12022;52.266;10.522;2022-08-21T05:40:01;24.80;99.90
1538;DHT22;12022;52.266;10.522;2022-08-21T05:42:49;25.20;99.90
1538;DHT22;12022;52.266;10.522;2022-08-21T05:45:28;25.70;99.90
1538;DHT22;12022;52.266;10.522;2022-08-21T05:48:19;26.10;99.90
1538;DHT22;12022;52.266;10.522;2022-08-21T05:50:47;26.70;99.90
1538;DHT22;12022;52.266;10.522;2022-08-21T05:53:16;27.40;99.90
1538;DHT22;12022;52.266;10.522;2022-08-21T05:55:50;28.10;99.60
1538;DHT22;12022;52.266;10.522;2022-08-21T05:58:19;29.00;98.20
1538;DHT22;12022;52.266;10.522;2022-08-21T06:00:47;29.60;96.80
1538;DHT22;12022;52.266;10.522;2022-08-21T06:03:21;30.40;95.30
1538;DHT22;12022;52.266;10.522;2022-08-21T06:05:48;31.00;93.80
1538;DHT22;12022;52.266;10.522;2022-08-21T06:08:16;31.40;92.30
1538;DHT22;12022;52.266;10.522;2022-08-21T06:10:44;31.10;91.10
1538;DHT22;12022;52.266;10.522;2022-08-21T06:13:12;30.40;91.00
1538;DHT22;12022;52.266;10.522;2022-08-21T06:15:39;29.70;91.20
1538;DHT22;12022;52.266;10.522;2022-08-21T06:18:06;28.90;91.60
1538;DHT22;12022;52.266;10.522;2022-08-21T06:20:34;27.80;92.10
1538;DHT22;12022;52.266;10.522;2022-08-21T06:23:01;27.70;93.20
1538;DHT22;12022;52.266;10.522;2022-08-21T06:25:28;27.20;93.80
1538;DHT22;12022;52.266;10.522;2022-08-21T06:28:07;26.70;94.40
1538;DHT22;12022;52.266;10.522;2022-08-21T06:30:37;26.30;95.20
1538;DHT22;12022;52.266;10.522;2022-08-21T06:33:04;26.00;96.10
1538;DHT22;12022;52.266;10.522;2022-08-21T06:35:32;25.90;96.60
1538;DHT22;12022;52.266;10.522;2022-08-21T06:38:00;25.60;97.00
1538;DHT22;12022;52.266;10.522;2022-08-21T06:40:27;25.50;97.40
1538;DHT22;12022;52.266;10.522;2022-08-21T06:43:05;25.40;97.80
1538;DHT22;12022;52.266;10.522;2022-08-21T06:45:32;25.30;98.20
1538;DHT22;12022;52.266;10.522;2022-08-21T06:47:59;25.30;98.50
1538;DHT22;12022;52.266;10.522;2022-08-21T06:50:27;25.20;98.60
1538;DHT22;12022;52.266;10.522;2022-08-21T06:53:03;25.30;98.80
1538;DHT22;12022;52.266;10.522;2022-08-21T06:55:31;25.30;99.00
1538;DHT22;12022;52.266;10.522;2022-08-21T06:57:58;25.40;99.00
1538;DHT22;12022;52.266;10.522;2022-08-21T07:00:26;25.50;99.10
1538;DHT22;12022;52.266;10.522;2022-08-21T07:02:53;25.60;99.00
1538;DHT22;12022;52.266;10.522;2022-08-21T07:05:20;25.70;99.00
1538;DHT22;12022;52.266;10.522;2022-08-21T07:07:47;25.90;99.10
1538;DHT22;12022;52.266;10.522;2022-08-21T07:10:15;26.00;98.50
1538;DHT22;12022;52.266;10.522;2022-08-21T07:12:49;26.00;98.30
1538;DHT22;12022;52.266;10.522;2022-08-21T07:15:27;26.10;98.40
1538;DHT22;12022;52.266;10.522;2022-08-21T07:17:54;26.20;98.40
1538;DHT22;12022;52.266;10.522;2022-08-21T07:20:21;26.40;98.30
1538;DHT22;12022;52.266;10.522;2022-08-21T07:22:48;26.70;98.20
1538;DHT22;12022;52.266;10.522;2022-08-21T07:25:14;26.90;97.80
1538;DHT22;12022;52.266;10.522;2022-08-21T07:27:41;27.00;97.30
1538;DHT22;12022;52.266;10.522;2022-08-21T07:30:09;27.00;97.30
1538;DHT22;12022;52.266;10.522;2022-08-21T07:32:36;27.10;97.30
1538;DHT22;12022;52.266;10.522;2022-08-21T07:35:03;27.10;97.30
1538;DHT22;12022;52.266;10.522;2022-08-21T07:37:30;27.10;97.40
1538;DHT22;12022;52.266;10.522;2022-08-21T07:39:57;27.10;97.30
1538;DHT22;12022;52.266;10.522;2022-08-21T07:42:24;27.00;97.20
1538;DHT22;12022;52.266;10.522;2022-08-21T07:44:51;27.00;97.30
1538;DHT22;12022;52.266;10.522;2022-08-21T07:47:22;26.90;97.40
1538;DHT22;12022;52.266;10.522;2022-08-21T07:50:11;27.00;97.70
1538;DHT22;12022;52.266;10.522;2022-08-21T07:52:40;27.10;97.80
1538;DHT22;12022;52.266;10.522;2022-08-21T07:55:09;27.30;97.70
1538;DHT22;12022;52.266;10.522;2022-08-21T07:57:37;27.60;97.70
1538;DHT22;12022;52.266;10.522;2022-08-21T08:00:08;27.90;97.20
1538;DHT22;12022;52.266;10.522;2022-08-21T08:02:35;28.30;96.60
1538;DHT22;12022;52.266;10.522;2022-08-21T08:05:08;28.70;95.50
1538;DHT22;12022;52.266;10.522;2022-08-21T08:07:36;29.10;94.70
1538;DHT22;12022;52.266;10.522;2022-08-21T08:10:04;29.50;93.30
1538;DHT22;12022;52.266;10.522;2022-08-21T08:12:32;29.80;92.30
1538;DHT22;12022;52.266;10.522;2022-08-21T08:15:00;30.10;90.60
1538;DHT22;12022;52.266;10.522;2022-08-21T08:17:27;30.30;87.80
1538;DHT22;12022;52.266;10.522;2022-08-21T08:19:55;30.40;86.80
1538;DHT22;12022;52.266;10.522;2022-08-21T08:22:23;30.60;86.50
1538;DHT22;12022;52.266;10.522;2022-08-21T08:24:51;30.60;86.80
1538;DHT22;12022;52.266;10.522;2022-08-21T08:27:19;30.60;87.70
1538;DHT22;12022;52.266;10.522;2022-08-21T08:29:47;30.60;86.90
1538;DHT22;12022;52.266;10.522;2022-08-21T08:32:14;30.50;86.60
1538;DHT22;12022;52.266;10.522;2022-08-21T08:34:41;30.30;85.50
1538;DHT22;12022;52.266;10.522;2022-08-21T08:37:09;30.00;85.70
1538;DHT22;12022;52.266;10.522;2022-08-21T08:39:36;29.70;87.30
1538;DHT22;12022;52.266;10.522;2022-08-21T08:42:12;29.40;86.40
1538;DHT22;12022;52.266;10.522;2022-08-21T08:45:09;29.10;87.80
1538;DHT22;12022;52.266;10.522;2022-08-21T08:47:42;28.70;88.90
1538;DHT22;12022;52.266;10.522;2022-08-21T08:50:18;28.50;90.30
1538;DHT22;12022;52.266;10.522;2022-08-21T08:53:05;28.40;90.60
1538;DHT22;12022;52.266;10.522;2022-08-21T08:55:42;28.20;90.70
1538;DHT22;12022;52.266;10.522;2022-08-21T08:58:16;28.00;91.20
1538;DHT22;12022;52.266;10.522;2022-08-21T09:00:47;27.90;91.70
1538;DHT22;12022;52.266;10.522;2022-08-21T09:03:16;27.80;91.60
1538;DHT22;12022;52.266;10.522;2022-08-21T09:14:13;27.60;91.80
1538;DHT22;12022;52.266;10.522;2022-08-21T09:19:49;27.60;91.00
1538;DHT22;12022;52.266;10.522;2022-08-21T09:26:04;27.60;91.00
1538;DHT22;12022;52.266;10.522;2022-08-21T09:27:58;27.50;90.90
1538;DHT22;12022;52.266;10.522;2022-08-21T09:30:29;27.60;91.50
1538;DHT22;12022;52.266;10.522;2022-08-21T09:32:56;27.60;91.30
1538;DHT22;12022;52.266;10.522;2022-08-21T09:35:24;27.70;91.60
1538;DHT22;12022;52.266;10.522;2022-08-21T09:38:00;27.80;91.50
1538;DHT22;12022;52.266;10.522;2022-08-21T09:43:06;28.20;90.20
1538;DHT22;12022;52.266;10.522;2022-08-21T09:45:35;28.40;90.00
1538;DHT22;12022;52.266;10.522;2022-08-21T09:48:28;28.60;90.00
1538;DHT22;12022;52.266;10.522;2022-08-21T09:51:07;28.70;88.20
1538;DHT22;12022;52.266;10.522;2022-08-21T09:53:38;28.80;87.50
1538;DHT22;12022;52.266;10.522;2022-08-21T09:56:20;28.70;86.70
1538;DHT22;12022;52.266;10.522;2022-08-21T09:59:25;28.60;87.00
1538;DHT22;12022;52.266;10.522;2022-08-21T10:01:53;28.50;86.70
1538;DHT22;12022;52.266;10.522;2022-08-21T10:04:28;28.40;85.80
1538;DHT22;12022;52.266;10.522;2022-08-21T10:07:10;28.20;86.10
1538;DHT22;12022;52.266;10.522;2022-08-21T10:09:38;28.00;86.30
1538;DHT22;12022;52.266;10.522;2022-08-21T10:12:20;27.90;85.70
1538;DHT22;12022;52.266;10.522;2022-08-21T10:15:18;27.80;85.90
1538;DHT22;12022;52.266;10.522;2022-08-21T10:21:14;27.60;85.90
1538;DHT22;12022;52.266;10.522;2022-08-21T10:29:21;27.30;84.80
1538;DHT22;12022;52.266;10.522;2022-08-21T10:45:25;27.60;84.30
1538;DHT22;12022;52.266;10.522;2022-08-21T10:47:57;27.60;82.50
1538;DHT22;12022;52.266;10.522;2022-08-21T10:50:34;27.60;81.40
1538;DHT22;12022;52.266;10.522;2022-08-21T10:53:41;27.60;82.50
1538;DHT22;12022;52.266;10.522;2022-08-21T10:56:29;27.70;82.60
1538;DHT22;12022;52.266;10.522;2022-08-21T10:59:09;27.80;83.60
1538;DHT22;12022;52.266;10.522;2022-08-21T11:01:53;27.90;83.50
1538;DHT22;12022;52.266;10.522;2022-08-21T11:04:49;28.00;81.40
1538;DHT22;12022;52.266;10.522;2022-08-21T11:07:26;28.00;80.50
1538;DHT22;12022;52.266;10.522;2022-08-21T11:10:07;28.00;80.60
1538;DHT22;12022;52.266;10.522;2022-08-21T11:12:56;28.10;80.50
1538;DHT22;12022;52.266;10.522;2022-08-21T11:15:51;28.00;80.00
1538;DHT22;12022;52.266;10.522;2022-08-21T11:23:50;28.00;79.50
1538;DHT22;12022;52.266;10.522;2022-08-21T11:26:29;28.00;79.80
1538;DHT22;12022;52.266;10.522;2022-08-21T11:29:05;28.10;80.60
1538;DHT22;12022;52.266;10.522;2022-08-21T11:32:08;28.20;79.90
1538;DHT22;12022;52.266;10.522;2022-08-21T11:34:54;28.30;78.50
1538;DHT22;12022;52.266;10.522;2022-08-21T11:45:52;28.20;76.70
1538;DHT22;12022;52.266;10.522;2022-08-21T11:51:18;28.00;78.30
1538;DHT22;12022;52.266;10.522;2022-08-21T11:54:16;28.10;77.90
1538;DHT22;12022;52.266;10.522;2022-08-21T11:56:50;28.10;78.90
1538;DHT22;12022;52.266;10.522;2022-08-21T11:59:25;28.10;78.40
1538;DHT22;12022;52.266;10.522;2022-08-21T12:01:56;28.20;78.80
1538;DHT22;12022;52.266;10.522;2022-08-21T12:04:34;28.10;77.90
1538;DHT22;12022;52.266;10.522;2022-08-21T12:07:34;28.00;77.10
1538;DHT22;12022;52.266;10.522;2022-08-21T12:10:00;27.90;77.40
1538;DHT22;12022;52.266;10.522;2022-08-21T12:12:34;27.80;77.10
1538;DHT22;12022;52.266;10.522;2022-08-21T12:15:26;27.70;77.40
1538;DHT22;12022;52.266;10.522;2022-08-21T12:18:00;27.70;77.80
1538;DHT22;12022;52.266;10.522;2022-08-21T12:20:37;27.60;76.40
1538;DHT22;12022;52.266;10.522;2022-08-21T12:23:24;27.60;75.30
1538;DHT22;12022;52.266;10.522;2022-08-21T12:28:28;27.50;73.70
1538;DHT22;12022;52.266;10.522;2022-08-21T12:30:57;27.50;74.10
1538;DHT22;12022;52.266;10.522;2022-08-21T12:33:29;27.50;74.00
1538;DHT22;12022;52.266;10.522;2022-08-21T12:36:10;27.50;72.10
1538;DHT22;12022;52.266;10.522;2022-08-21T12:38:53;27.40;71.40
1538;DHT22;12022;52.266;10.522;2022-08-21T12:41:37;27.50;72.30
1538;DHT22;12022;52.266;10.522;2022-08-21T12:44:09;27.60;70.60
1538;DHT22;12022;52.266;10.522;2022-08-21T12:46:46;27.60;70.20
1538;DHT22;12022;52.266;10.522;2022-08-21T12:49:21;27.70;70.10
1538;DHT22;12022;52.266;10.522;2022-08-21T12:52:09;27.70;70.90
1538;DHT22;12022;52.266;10.522;2022-08-21T12:54:41;27.80;70.50
1538;DHT22;12022;52.266;10.522;2022-08-21T12:57:17;27.80;69.90
1538;DHT22;12022;52.266;10.522;2022-08-21T12:59:45;27.90;68.00
1538;DHT22;12022;52.266;10.522;2022-08-21T13:02:19;27.90;68.80
1538;DHT22;12022;52.266;10.522;2022-08-21T13:04:48;28.00;68.70
1538;DHT22;12022;52.266;10.522;2022-08-21T13:07:25;28.00;68.70
1538;DHT22;12022;52.266;10.522;2022-08-21T13:10:05;28.00;68.20
1538;DHT22;12022;52.266;10.522;2022-08-21T13:12:33;28.00;66.50
1538;DHT22;12022;52.266;10.522;2022-08-21T13:15:05;28.10;67.00
1538;DHT22;12022;52.266;10.522;2022-08-21T13:17:41;28.20;67.00
1538;DHT22;12022;52.266;10.522;2022-08-21T13:20:27;28.10;66.30
1538;DHT22;12022;52.266;10.522;2022-08-21T13:22:54;28.20;66.80
1538;DHT22;12022;52.266;10.522;2022-08-21T13:25:26;28.10;65.90
1538;DHT22;12022;52.266;10.522;2022-08-21T13:28:06;28.10;66.00
1538;DHT22;12022;52.266;10.522;2022-08-21T13:30:33;28.10;66.80
1538;DHT22;12022;52.266;10.522;2022-08-21T13:33:03;28.00;67.10
1538;DHT22;12022;52.266;10.522;2022-08-21T13:36:02;28.00;65.90
1538;DHT22;12022;52.266;10.522;2022-08-21T13:38:33;27.90;65.40
1538;DHT22;12022;52.266;10.522;2022-08-21T13:43:50;27.80;65.90
1538;DHT22;12022;52.266;10.522;2022-08-21T13:46:18;27.90;65.60
1538;DHT22;12022;52.266;10.522;2022-08-21T13:48:48;28.00;65.30
1538;DHT22;12022;52.266;10.522;2022-08-21T13:51:15;28.50;65.90
1538;DHT22;12022;52.266;10.522;2022-08-21T13:58:49;28.30;63.20
1538;DHT22;12022;52.266;10.522;2022-08-21T14:01:38;28.40;63.90
1538;DHT22;12022;52.266;10.522;2022-08-21T14:04:20;28.40;62.90
1538;DHT22;12022;52.266;10.522;2022-08-21T14:06:48;28.40;62.00
1538;DHT22;12022;52.266;10.522;2022-08-21T14:09:41;28.40;62.60
1538;DHT22;12022;52.266;10.522;2022-08-21T14:12:28;28.30;63.10
1538;DHT22;12022;52.266;10.522;2022-08-21T14:14:56;28.20;63.30
1538;DHT22;12022;52.266;10.522;2022-08-21T14:17:42;28.10;63.00
1538;DHT22;12022;52.266;10.522;2022-08-21T14:20:12;28.00;63.50
1538;DHT22;12022;52.266;10.522;2022-08-21T14:22:51;27.90;63.40
1538;DHT22;12022;52.266;10.522;2022-08-21T14:27:55;27.90;64.40
1538;DHT22;12022;52.266;10.522;2022-08-21T14:30:37;27.80;63.90
1538;DHT22;12022;52.266;10.522;2022-08-21T14:33:12;27.80;63.30
1538;DHT22;12022;52.266;10.522;2022-08-21T14:35:40;27.80;64.50
1538;DHT22;12022;52.266;10.522;2022-08-21T14:38:18;27.80;64.90
1538;DHT22;12022;52.266;10.522;2022-08-21T14:40:52;27.80;64.40
1538;DHT22;12022;52.266;10.522;2022-08-21T14:43:20;27.80;64.40
1538;DHT22;12022;52.266;10.522;2022-08-21T14:45:47;27.80;64.60
1538;DHT22;12022;52.266;10.522;2022-08-21T14:48:14;27.80;64.30
1538;DHT22;12022;52.266;10.522;2022-08-21T14:50:41;27.90;64.40
1538;DHT22;12022;52.266;10.522;2022-08-21T14:53:09;27.90;64.00
1538;DHT22;12022;52.266;10.522;2022-08-21T14:55:38;28.00;64.30
1538;DHT22;12022;52.266;10.522;2022-08-21T14:58:25;28.00;64.20
1538;DHT22;12022;52.266;10.522;2022-08-21T15:00:53;28.00;63.50
1538;DHT22;12022;52.266;10.522;2022-08-21T15:03:20;28.00;63.30
1538;DHT22;12022;52.266;10.522;2022-08-21T15:05:51;28.00;64.00
1538;DHT22;12022;52.266;10.522;2022-08-21T15:08:18;28.10;63.90
1538;DHT22;12022;52.266;10.522;2022-08-21T15:10:45;28.10;63.50
1538;DHT22;12022;52.266;10.522;2022-08-21T15:13:33;28.10;62.90
1538;DHT22;12022;52.266;10.522;2022-08-21T15:16:00;28.00;63.20
1538;DHT22;12022;52.266;10.522;2022-08-21T15:18:28;28.00;63.20
1538;DHT22;12022;52.266;10.522;2022-08-21T15:20:56;27.90;63.20
1538;DHT22;12022;52.266;10.522;2022-08-21T15:23:24;27.90;62.90
1538;DHT22;12022;52.266;10.522;2022-08-21T15:25:52;27.90;62.70
1538;DHT22;12022;52.266;10.522;2022-08-21T15:28:20;27.80;62.60
1538;DHT22;12022;52.266;10.522;2022-08-21T15:30:50;27.80;62.80
1538;DHT22;12022;52.266;10.522;2022-08-21T15:33:18;27.80;62.80
1538;DHT22;12022;52.266;10.522;2022-08-21T15:35:45;27.80;62.10
1538;DHT22;12022;52.266;10.522;2022-08-21T15:38:13;27.80;62.20
1538;DHT22;12022;52.266;10.522;2022-08-21T15:40:41;27.70;62.50
1538;DHT22;12022;52.266;10.522;2022-08-21T15:43:27;27.70;63.30
1538;DHT22;12022;52.266;10.522;2022-08-21T15:45:58;27.80;63.40
1538;DHT22;12022;52.266;10.522;2022-08-21T15:48:26;27.70;63.20
1538;DHT22;12022;52.266;10.522;2022-08-21T15:50:52;27.70;63.40
1538;DHT22;12022;52.266;10.522;2022-08-21T15:53:19;27.60;63.40
1538;DHT22;12022;52.266;10.522;2022-08-21T15:55:46;27.50;63.60
1538;DHT22;12022;52.266;10.522;2022-08-21T15:58:15;27.40;63.30
1538;DHT22;12022;52.266;10.522;2022-08-21T16:00:43;27.40;63.50
1538;DHT22;12022;52.266;10.522;2022-08-21T16:03:15;27.30;63.70
1538;DHT22;12022;52.266;10.522;2022-08-21T16:05:44;27.10;63.60
1538;DHT22;12022;52.266;10.522;2022-08-21T16:08:11;27.00;64.60
1538;DHT22;12022;52.266;10.522;2022-08-21T16:10:39;26.90;63.70
1538;DHT22;12022;52.266;10.522;2022-08-21T16:13:20;26.80;64.00
1538;DHT22;12022;52.266;10.522;2022-08-21T16:15:50;26.80;64.50
1538;DHT22;12022;52.266;10.522;2022-08-21T16:18:17;26.70;64.70
1538;DHT22;12022;52.266;10.522;2022-08-21T16:20:45;26.70;64.70
1538;DHT22;12022;52.266;10.522;2022-08-21T16:23:13;26.80;65.10
1538;DHT22;12022;52.266;10.522;2022-08-21T16:25:40;26.80;65.40
1538;DHT22;12022;52.266;10.522;2022-08-21T16:28:10;26.90;65.40
1538;DHT22;12022;52.266;10.522;2022-08-21T16:30:39;26.90;64.70
1538;DHT22;12022;52.266;10.522;2022-08-21T16:33:07;27.00;65.10
1538;DHT22;12022;52.266;10.522;2022-08-21T16:35:36;27.10;64.80
1538;DHT22;12022;52.266;10.522;2022-08-21T16:38:03;27.10;64.60
1538;DHT22;12022;52.266;10.522;2022-08-21T16:40:30;27.00;64.80
1538;DHT22;12022;52.266;10.522;2022-08-21T16:42:58;27.10;65.40
1538;DHT22;12022;52.266;10.522;2022-08-21T16:45:26;27.00;65.60
1538;DHT22;12022;52.266;10.522;2022-08-21T16:47:59;27.00;65.60
1538;DHT22;12022;52.266;10.522;2022-08-21T16:50:26;26.90;65.60
1538;DHT22;12022;52.266;10.522;2022-08-21T16:52:53;26.90;65.60
1538;DHT22;12022;52.266;10.522;2022-08-21T16:55:20;26.80;65.50
1538;DHT22;12022;52.266;10.522;2022-08-21T16:57:47;26.80;65.60
1538;DHT22;12022;52.266;10.522;2022-08-21T17:00:14;26.70;66.00
1538;DHT22;12022;52.266;10.522;2022-08-21T17:02:45;26.60;66.00
1538;DHT22;12022;52.266;10.522;2022-08-21T17:05:13;26.50;66.20
1538;DHT22;12022;52.266;10.522;2022-08-21T17:07:42;26.50;66.30